createdAt,value
2019-02-24T00:00:07.574Z,11.70
2019-02-24T00:02:36.248Z,9.30
2019-02-24T00:05:06.418Z,10.87
2019-02-24T00:07:35.093Z,7.47
2019-02-24T00:10:04.454Z,8.23
2019-02-24T00:12:33.127Z,5.50
2019-02-24T00:15:01.786Z,9.13
2019-02-24T00:17:30.512Z,5.97
2019-02-24T00:19:59.168Z,4.60
2019-02-24T00:22:27.822Z,7.97
2019-02-24T00:24:57.396Z,4.73
2019-02-24T00:27:26.059Z,5.77
2019-02-24T00:29:54.720Z,7.30
2019-02-24T00:32:23.385Z,5.30
2019-02-24T00:34:52.110Z,5.13
2019-02-24T00:37:20.810Z,3.53
2019-02-24T00:39:49.447Z,2.73
2019-02-24T00:42:18.127Z,5.33
2019-02-24T00:44:46.779Z,3.70
2019-02-24T00:47:15.451Z,5.87
2019-02-24T00:49:44.114Z,4.90
2019-02-24T00:52:12.783Z,5.20
2019-02-24T00:54:41.448Z,5.20
2019-02-24T00:57:10.108Z,4.13
2019-02-24T00:59:38.772Z,4.53
2019-02-24T01:02:07.432Z,4.33
2019-02-24T01:04:36.128Z,8.13
2019-02-24T01:07:04.793Z,4.67
2019-02-24T01:09:33.458Z,4.07
2019-02-24T01:12:02.124Z,5.43
2019-02-24T01:14:30.786Z,5.63
2019-02-24T01:16:59.473Z,6.60
2019-02-24T01:19:28.134Z,5.77
2019-02-24T01:21:56.798Z,6.93
2019-02-24T01:24:25.505Z,8.30
2019-02-24T01:26:54.187Z,8.50
2019-02-24T01:29:22.837Z,8.73
2019-02-24T01:31:51.506Z,13.43
2019-02-24T01:34:20.185Z,15.70
2019-02-24T01:36:48.871Z,11.70
2019-02-24T01:39:17.549Z,12.50
2019-02-24T01:41:46.286Z,11.23
2019-02-24T01:44:14.951Z,7.97
2019-02-24T01:46:43.660Z,14.60
2019-02-24T01:49:12.357Z,15.67
2019-02-24T01:51:41.022Z,11.33
2019-02-24T01:54:09.694Z,10.07
2019-02-24T01:56:38.373Z,7.30
2019-02-24T01:59:07.045Z,6.60
2019-02-24T02:01:35.703Z,7.37
2019-02-24T02:04:04.388Z,8.13
2019-02-24T02:06:33.153Z,7.27
2019-02-24T02:09:01.819Z,7.83
2019-02-24T02:11:30.507Z,5.30
2019-02-24T02:13:59.237Z,10.37
2019-02-24T02:16:27.892Z,8.37
2019-02-24T02:18:56.554Z,5.37
2019-02-24T02:21:25.230Z,5.97
2019-02-24T02:23:53.892Z,4.30
2019-02-24T02:26:22.572Z,4.87
2019-02-24T02:28:51.255Z,9.57
2019-02-24T02:31:19.934Z,3.97
2019-02-24T02:33:48.610Z,7.43
2019-02-24T02:36:17.259Z,6.47
2019-02-24T02:38:45.948Z,3.87
2019-02-24T02:41:14.610Z,4.87
2019-02-24T02:43:43.274Z,7.13
2019-02-24T02:46:11.934Z,6.13
2019-02-24T02:48:40.628Z,5.87
2019-02-24T02:51:09.573Z,6.50
2019-02-24T02:53:38.299Z,3.77
2019-02-24T02:56:06.954Z,4.37
2019-02-24T02:58:35.623Z,5.30
2019-02-24T03:01:04.289Z,4.70
2019-02-24T03:03:32.961Z,6.30
2019-02-24T03:06:03.203Z,6.23
2019-02-24T03:08:48.518Z,4.37
2019-02-24T03:11:17.494Z,5.60
2019-02-24T03:13:46.171Z,4.57
2019-02-24T03:16:16.413Z,7.00
2019-02-24T03:18:45.118Z,5.00
2019-02-24T03:21:13.770Z,5.00
2019-02-24T03:23:42.445Z,4.53
2019-02-24T03:26:11.101Z,7.07
2019-02-24T03:28:39.775Z,5.57
2019-02-24T03:31:08.497Z,7.47
2019-02-24T03:33:37.139Z,3.97
2019-02-24T03:36:05.802Z,4.07
2019-02-24T03:38:34.462Z,6.17
2019-02-24T03:41:03.127Z,5.93
2019-02-24T03:43:31.839Z,5.03
2019-02-24T03:46:00.506Z,6.57
2019-02-24T03:48:29.179Z,6.83
2019-02-24T03:50:57.842Z,9.50
2019-02-24T03:53:26.567Z,7.73
2019-02-24T03:55:57.543Z,6.13
2019-02-24T03:58:25.710Z,6.60
2019-02-24T04:00:54.376Z,5.93
2019-02-24T04:03:23.049Z,6.53
2019-02-24T04:05:51.734Z,4.77
2019-02-24T04:08:20.402Z,4.03
2019-02-24T04:10:49.100Z,7.50
2019-02-24T04:13:17.777Z,5.70
2019-02-24T04:15:46.584Z,2.83
2019-02-24T04:18:15.250Z,3.53
2019-02-24T04:20:43.921Z,6.77
2019-02-24T04:23:12.597Z,5.93
2019-02-24T04:25:41.261Z,5.93
2019-02-24T04:28:09.948Z,5.97
2019-02-24T04:30:38.613Z,5.73
2019-02-24T04:33:07.287Z,5.30
2019-02-24T04:35:35.933Z,5.50
2019-02-24T04:38:04.699Z,5.83
2019-02-24T04:40:33.384Z,6.73
2019-02-24T04:43:02.043Z,5.90
2019-02-24T04:45:30.731Z,5.40
2019-02-24T04:47:59.393Z,6.23
2019-02-24T04:50:28.062Z,3.70
2019-02-24T04:52:56.751Z,4.70
2019-02-24T04:55:25.412Z,4.40
2019-02-24T04:57:54.086Z,4.27
2019-02-24T05:00:22.753Z,11.03
2019-02-24T05:02:51.410Z,6.33
2019-02-24T05:05:20.077Z,11.20
2019-02-24T05:07:48.825Z,8.20
2019-02-24T05:10:17.499Z,6.27
2019-02-24T05:12:46.170Z,7.30
2019-02-24T05:15:14.842Z,6.53
2019-02-24T05:17:43.510Z,5.07
2019-02-24T05:20:12.173Z,6.10
2019-02-24T05:22:40.837Z,6.37
2019-02-24T05:25:09.513Z,5.23
2019-02-24T05:27:38.180Z,6.30
2019-02-24T05:30:07.114Z,6.70
2019-02-24T05:32:35.762Z,6.43
2019-02-24T05:35:05.029Z,7.33
2019-02-24T05:37:33.689Z,5.33
2019-02-24T05:40:02.351Z,7.13
2019-02-24T05:42:31.023Z,5.33
2019-02-24T05:44:59.761Z,8.27
2019-02-24T05:47:28.408Z,5.43
2019-02-24T05:49:57.074Z,5.43
2019-02-24T05:52:25.741Z,9.47
2019-02-24T05:54:54.400Z,8.83
2019-02-24T05:57:23.075Z,6.23
2019-02-24T05:59:55.380Z,9.40
2019-02-24T06:02:22.183Z,7.90
2019-02-24T06:04:50.847Z,9.63
2019-02-24T06:07:19.621Z,6.47
2019-02-24T06:09:48.290Z,6.67
2019-02-24T06:12:16.970Z,12.00
2019-02-24T06:14:45.664Z,5.70
2019-02-24T06:17:14.329Z,4.27
2019-02-24T06:19:42.994Z,4.93
2019-02-24T06:22:11.665Z,5.40
2019-02-24T06:24:40.335Z,7.43
2019-02-24T06:27:09.024Z,5.33
2019-02-24T06:29:37.744Z,4.77
2019-02-24T06:32:06.402Z,4.23
2019-02-24T06:34:35.111Z,4.90
2019-02-24T06:37:03.788Z,6.10
2019-02-24T06:39:32.464Z,4.00
2019-02-24T06:42:01.144Z,6.77
2019-02-24T06:44:29.798Z,4.47
2019-02-24T06:46:58.568Z,4.40
2019-02-24T06:49:27.255Z,4.47
2019-02-24T06:51:56.127Z,5.63
2019-02-24T06:54:24.758Z,3.87
2019-02-24T06:56:53.429Z,3.77
2019-02-24T06:59:22.103Z,7.73
2019-02-24T07:01:50.752Z,6.83
2019-02-24T07:04:19.427Z,4.50
2019-02-24T07:06:48.107Z,4.90
2019-02-24T07:09:16.769Z,3.40
2019-02-24T07:11:45.440Z,3.97
2019-02-24T07:14:14.120Z,4.80
2019-02-24T07:16:42.843Z,4.93
2019-02-24T07:19:11.553Z,3.77
2019-02-24T07:21:40.194Z,4.20
2019-02-24T07:24:08.906Z,4.73
2019-02-24T07:26:37.555Z,6.57
2019-02-24T07:29:06.219Z,4.63
2019-02-24T07:31:34.880Z,4.53
2019-02-24T07:34:03.548Z,4.10
2019-02-24T07:36:32.229Z,4.67
2019-02-24T07:39:00.955Z,6.57
2019-02-24T07:41:29.625Z,4.70
2019-02-24T07:43:58.285Z,4.07
2019-02-24T07:46:26.952Z,8.80
2019-02-24T07:48:55.658Z,5.23
2019-02-24T07:51:24.335Z,8.40
2019-02-24T07:53:53.014Z,10.03
2019-02-24T07:56:21.681Z,13.27
2019-02-24T07:58:50.372Z,12.97
2019-02-24T08:01:19.038Z,7.63
2019-02-24T08:03:47.699Z,9.03
2019-02-24T08:06:16.372Z,10.07
2019-02-24T08:08:45.033Z,8.50
2019-02-24T08:11:13.685Z,9.33
2019-02-24T08:13:44.048Z,8.03
2019-02-24T08:16:12.808Z,8.10
2019-02-24T08:18:49.254Z,11.77
2019-02-24T08:21:11.863Z,6.43
2019-02-24T08:23:40.564Z,6.33
2019-02-24T08:26:09.222Z,6.97
2019-02-24T08:28:37.882Z,6.63
2019-02-24T08:31:06.547Z,7.10
2019-02-24T08:33:35.220Z,8.40
2019-02-24T08:36:03.893Z,7.43
2019-02-24T08:38:32.559Z,5.73
2019-02-24T08:41:01.230Z,8.70
2019-02-24T08:43:29.933Z,8.33
2019-02-24T08:45:58.571Z,7.60
2019-02-24T08:48:27.259Z,6.40
2019-02-24T08:50:55.923Z,7.17
2019-02-24T08:53:24.650Z,5.30
2019-02-24T08:55:53.319Z,5.23
2019-02-24T08:58:21.979Z,4.73
2019-02-24T09:00:51.382Z,5.97
2019-02-24T09:03:20.198Z,6.13
2019-02-24T09:05:48.853Z,4.27
2019-02-24T09:08:17.523Z,3.40
2019-02-24T09:10:46.217Z,4.77
2019-02-24T09:13:14.853Z,3.83
2019-02-24T09:15:43.524Z,8.23
2019-02-24T09:18:12.184Z,3.93
2019-02-24T09:20:40.925Z,6.40
2019-02-24T09:23:09.579Z,4.57
2019-02-24T09:25:38.256Z,5.73
2019-02-24T09:28:06.928Z,4.70
2019-02-24T09:30:35.591Z,5.03
2019-02-24T09:33:04.296Z,5.73
2019-02-24T09:35:32.953Z,4.53
2019-02-24T09:38:01.628Z,4.97
2019-02-24T09:40:30.298Z,4.70
2019-02-24T09:42:58.954Z,6.50
2019-02-24T09:45:27.626Z,4.90
2019-02-24T09:47:56.309Z,6.50
2019-02-24T09:50:24.996Z,4.70
2019-02-24T09:52:53.668Z,4.40
2019-02-24T09:55:22.323Z,5.60
2019-02-24T09:57:50.983Z,8.03
2019-02-24T10:00:21.862Z,7.10
2019-02-24T10:02:50.050Z,5.37
2019-02-24T10:05:18.789Z,5.13
2019-02-24T10:07:47.464Z,4.70
2019-02-24T10:10:16.129Z,5.57
2019-02-24T10:12:44.808Z,5.13
2019-02-24T10:15:15.142Z,5.40
2019-02-24T10:17:43.820Z,8.07
2019-02-24T10:20:13.095Z,2.63
2019-02-24T10:22:41.754Z,3.00
2019-02-24T10:25:10.746Z,3.47
2019-02-24T10:27:39.389Z,3.20
2019-02-24T10:30:13.650Z,5.77
2019-02-24T10:32:42.306Z,4.07
2019-02-24T10:35:10.988Z,4.10
2019-02-24T10:37:39.655Z,5.37
2019-02-24T10:40:16.182Z,4.13
2019-02-24T10:42:44.879Z,4.23
2019-02-24T10:45:18.043Z,4.43
2019-02-24T10:47:46.731Z,5.17
2019-02-24T10:50:16.298Z,5.77
2019-02-24T10:52:44.960Z,4.67
2019-02-24T10:55:13.736Z,3.27
2019-02-24T10:57:42.396Z,5.73
2019-02-24T11:00:21.258Z,4.37
2019-02-24T11:02:49.936Z,3.90
2019-02-24T11:05:18.607Z,6.67
2019-02-24T11:07:47.289Z,5.27
2019-02-24T11:10:15.946Z,4.87
2019-02-24T11:12:44.615Z,3.60
2019-02-24T11:15:13.883Z,5.30
2019-02-24T11:17:42.548Z,3.90
2019-02-24T11:20:13.415Z,4.93
2019-02-24T11:22:42.074Z,4.93
2019-02-24T11:25:11.693Z,4.13
2019-02-24T11:27:40.407Z,3.90
2019-02-24T11:30:14.266Z,4.10
2019-02-24T11:32:43.028Z,3.67
2019-02-24T11:35:12.402Z,5.50
2019-02-24T11:37:41.066Z,4.17
2019-02-24T11:40:17.537Z,4.37
2019-02-24T11:42:46.278Z,3.70
2019-02-24T11:45:14.918Z,3.70
2019-02-24T11:47:43.585Z,5.07
2019-02-24T11:50:13.043Z,6.40
2019-02-24T11:52:41.754Z,4.80
2019-02-24T11:55:11.079Z,6.17
2019-02-24T11:57:39.834Z,4.90
2019-02-24T12:00:11.754Z,3.97
2019-02-24T12:02:41.802Z,7.40
2019-02-24T12:05:11.127Z,7.47
2019-02-24T12:07:39.812Z,5.53
2019-02-24T12:10:12.284Z,5.07
2019-02-24T12:12:40.943Z,7.27
2019-02-24T12:15:14.318Z,5.67
2019-02-24T12:17:43.105Z,4.13
2019-02-24T12:20:13.546Z,4.80
2019-02-24T12:22:42.205Z,6.07
2019-02-24T12:25:11.675Z,4.70
2019-02-24T12:27:40.329Z,7.97
2019-02-24T12:30:16.025Z,7.17
2019-02-24T12:32:44.693Z,6.83
2019-02-24T12:35:13.354Z,4.53
2019-02-24T12:37:42.025Z,5.60
2019-02-24T12:40:14.578Z,5.00
2019-02-24T12:42:43.242Z,5.30
2019-02-24T12:45:12.186Z,5.57
2019-02-24T12:47:40.844Z,5.03
2019-02-24T12:50:11.886Z,5.00
2019-02-24T12:52:40.544Z,4.50
2019-02-24T12:55:10.112Z,5.90
2019-02-24T12:57:39.069Z,4.80
2019-02-24T13:00:11.556Z,4.90
2019-02-24T13:02:40.213Z,5.47
2019-02-24T13:05:08.874Z,5.30
2019-02-24T13:07:37.533Z,5.97
2019-02-24T13:10:09.395Z,5.97
2019-02-24T13:12:38.081Z,6.77
2019-02-24T13:15:06.940Z,7.60
2019-02-24T13:17:35.605Z,8.10
2019-02-24T13:20:05.801Z,6.20
2019-02-24T13:22:34.595Z,11.20
2019-02-24T13:25:03.258Z,5.30
2019-02-24T13:27:31.942Z,5.97
2019-02-24T13:30:00.607Z,6.10
2019-02-24T13:32:29.271Z,6.07
2019-02-24T13:34:57.959Z,5.90
2019-02-24T13:37:26.647Z,4.30
2019-02-24T13:39:55.309Z,4.50
2019-02-24T13:42:24.002Z,5.50
2019-02-24T13:44:52.704Z,5.73
2019-02-24T13:47:21.352Z,8.07
2019-02-24T13:49:50.022Z,7.47
2019-02-24T13:52:18.684Z,7.80
2019-02-24T13:54:47.339Z,6.43
2019-02-24T13:57:15.996Z,9.17
2019-02-24T13:59:44.655Z,6.93
2019-02-24T14:02:13.329Z,6.40
2019-02-24T14:04:42.028Z,5.07
2019-02-24T14:07:10.683Z,5.23
2019-02-24T14:09:39.371Z,5.97
2019-02-24T14:12:08.041Z,8.37
2019-02-24T14:14:36.697Z,9.53
2019-02-24T14:17:05.369Z,7.07
2019-02-24T14:19:34.036Z,7.90
2019-02-24T14:22:02.720Z,10.17
2019-02-24T14:24:31.379Z,9.90
2019-02-24T14:27:00.078Z,5.63
2019-02-24T14:29:28.746Z,5.97
2019-02-24T14:31:57.446Z,8.50
2019-02-24T14:34:26.106Z,5.57
2019-02-24T14:36:54.786Z,5.33
2019-02-24T14:39:23.450Z,6.00
2019-02-24T14:41:52.130Z,7.47
2019-02-24T14:44:20.786Z,6.03
2019-02-24T14:46:49.472Z,7.50
2019-02-24T14:49:18.143Z,5.90
2019-02-24T14:51:46.828Z,6.80
2019-02-24T14:54:15.538Z,6.47
2019-02-24T14:56:44.204Z,5.80
2019-02-24T14:59:12.878Z,5.70
2019-02-24T15:01:41.546Z,5.77
2019-02-24T15:04:10.202Z,5.57
2019-02-24T15:06:38.869Z,7.57
2019-02-24T15:09:07.938Z,8.37
2019-02-24T15:11:36.599Z,6.73
2019-02-24T15:14:05.271Z,5.27
2019-02-24T15:16:33.975Z,9.10
2019-02-24T15:19:02.606Z,5.63
2019-02-24T15:21:31.308Z,5.93
2019-02-24T15:23:59.979Z,5.53
2019-02-24T15:26:29.309Z,10.70
2019-02-24T15:28:58.091Z,9.03
2019-02-24T15:31:26.758Z,5.57
2019-02-24T15:33:55.426Z,6.07
2019-02-24T15:36:24.085Z,6.60
2019-02-24T15:38:52.782Z,12.50
2019-02-24T15:41:29.566Z,6.93
2019-02-24T15:43:51.903Z,8.17
2019-02-24T15:46:20.570Z,6.23
2019-02-24T15:48:49.243Z,7.50
2019-02-24T15:51:17.917Z,6.23
2019-02-24T15:53:46.696Z,7.47
2019-02-24T15:56:15.375Z,6.20
2019-02-24T15:58:44.077Z,5.93
2019-02-24T16:01:12.743Z,9.70
2019-02-24T16:03:41.416Z,6.43
2019-02-24T16:06:10.090Z,10.97
2019-02-24T16:08:38.766Z,11.60
2019-02-24T16:11:07.457Z,9.10
2019-02-24T16:13:36.116Z,7.50
2019-02-24T16:16:04.789Z,10.30
2019-02-24T16:18:33.489Z,10.83
2019-02-24T16:21:02.120Z,12.17
2019-02-24T16:23:30.798Z,12.17
2019-02-24T16:25:59.466Z,14.57
2019-02-24T16:28:28.202Z,11.80
2019-02-24T16:30:56.876Z,17.33
2019-02-24T16:33:25.581Z,10.10
2019-02-24T16:35:54.254Z,11.97
2019-02-24T16:38:22.905Z,11.50
2019-02-24T16:40:51.576Z,17.00
2019-02-24T16:43:20.258Z,11.93
2019-02-24T16:45:48.936Z,9.90
2019-02-24T16:48:17.616Z,9.20
2019-02-24T16:50:46.282Z,9.87
2019-02-24T16:53:14.954Z,9.43
2019-02-24T16:55:43.615Z,6.93
2019-02-24T16:58:12.322Z,8.37
2019-02-24T17:00:41.133Z,9.07
2019-02-24T17:03:09.796Z,7.20
2019-02-24T17:05:38.662Z,9.03
2019-02-24T17:08:07.340Z,27.03
2019-02-24T17:10:36.131Z,20.93
2019-02-24T17:13:04.815Z,26.10
2019-02-24T17:15:33.535Z,19.67
2019-02-24T17:18:02.204Z,18.33
2019-02-24T17:20:31.269Z,16.37
2019-02-24T17:22:59.976Z,15.97
2019-02-24T17:25:28.709Z,14.70
2019-02-24T17:27:57.385Z,17.97
2019-02-24T17:30:26.139Z,13.03
2019-02-24T17:32:54.855Z,12.57
2019-02-24T17:35:23.534Z,13.90
2019-02-24T17:37:52.221Z,14.60
2019-02-24T17:40:23.866Z,13.90
2019-02-24T17:42:52.535Z,14.80
2019-02-24T17:45:21.212Z,21.13
2019-02-24T17:47:49.915Z,20.93
2019-02-24T17:50:18.795Z,19.17
2019-02-24T17:52:47.465Z,21.57
2019-02-24T17:55:17.158Z,17.77
2019-02-24T17:57:45.828Z,16.03
2019-02-24T18:00:33.011Z,17.20
2019-02-24T18:03:01.680Z,15.47
2019-02-24T18:05:30.456Z,15.83
2019-02-24T18:07:59.159Z,16.93
2019-02-24T18:10:27.790Z,20.17
2019-02-24T18:12:56.459Z,19.30
2019-02-24T18:15:25.173Z,16.93
2019-02-24T18:17:53.861Z,19.93
2019-02-24T18:20:23.030Z,19.70
2019-02-24T18:22:51.714Z,17.53
2019-02-24T18:25:20.395Z,18.80
2019-02-24T18:27:49.181Z,18.87
2019-02-24T18:30:26.262Z,21.57
2019-02-24T18:32:54.941Z,22.13
2019-02-24T18:35:23.612Z,20.03
2019-02-24T18:37:52.304Z,21.40
2019-02-24T18:40:20.993Z,22.33
2019-02-24T18:42:49.668Z,21.03
2019-02-24T18:45:18.355Z,23.00
2019-02-24T18:47:47.034Z,20.80
2019-02-24T18:50:16.714Z,25.40
2019-02-24T18:52:45.394Z,22.43
2019-02-24T18:55:14.272Z,23.73
2019-02-24T18:57:42.948Z,30.80
2019-02-24T19:00:22.113Z,28.43
2019-02-24T19:02:50.788Z,24.97
2019-02-24T19:05:19.475Z,23.93
2019-02-24T19:07:48.134Z,28.73
2019-02-24T19:10:23.705Z,26.67
2019-02-24T19:12:52.389Z,28.83
2019-02-24T19:15:23.606Z,28.47
2019-02-24T19:17:52.291Z,25.43
2019-02-24T19:20:22.184Z,24.93
2019-02-24T19:22:50.955Z,24.70
2019-02-24T19:25:19.616Z,22.20
2019-02-24T19:27:48.301Z,19.10
2019-02-24T19:30:20.642Z,21.57
2019-02-24T19:32:49.336Z,29.17
2019-02-24T19:35:19.417Z,19.57
2019-02-24T19:37:48.104Z,23.97
2019-02-24T19:40:21.780Z,18.77
2019-02-24T19:42:50.464Z,25.43
2019-02-24T19:45:20.955Z,25.23
2019-02-24T19:47:49.727Z,19.60
2019-02-24T19:50:18.822Z,16.93
2019-02-24T19:52:47.502Z,17.40
2019-02-24T19:55:17.097Z,16.77
2019-02-24T19:57:45.827Z,18.00
2019-02-24T20:00:19.995Z,20.07
2019-02-24T20:02:48.661Z,18.83
2019-02-24T20:05:17.355Z,23.37
2019-02-24T20:07:46.042Z,19.70
2019-02-24T20:10:26.602Z,17.03
2019-02-24T20:12:55.276Z,18.30
2019-02-24T20:15:23.944Z,19.80
2019-02-24T20:17:52.663Z,15.70
2019-02-24T20:20:21.278Z,14.73
2019-02-24T20:22:50.012Z,12.77
2019-02-24T20:25:22.757Z,14.63
2019-02-24T20:27:51.430Z,16.47
2019-02-24T20:30:23.031Z,15.87
2019-02-24T20:32:51.707Z,20.17
2019-02-24T20:35:20.496Z,22.43
2019-02-24T20:37:49.207Z,24.63
2019-02-24T20:40:17.881Z,23.53
2019-02-24T20:42:46.558Z,26.40
2019-02-24T20:45:17.440Z,25.37
2019-02-24T20:47:46.213Z,22.23
2019-02-24T20:50:17.461Z,22.13
2019-02-24T20:52:46.133Z,23.50
2019-02-24T20:55:14.839Z,24.43
2019-02-24T20:57:43.525Z,22.60
2019-02-24T21:00:44.211Z,23.40
2019-02-24T21:03:12.883Z,18.63
2019-02-24T21:05:41.561Z,18.87
2019-02-24T21:08:10.246Z,18.53
2019-02-24T21:10:38.919Z,29.10
2019-02-24T21:13:07.594Z,25.47
2019-02-24T21:15:36.271Z,27.00
2019-02-24T21:18:05.245Z,25.23
2019-02-24T21:20:34.699Z,29.20
2019-02-24T21:23:03.364Z,30.33
2019-02-24T21:25:32.058Z,26.73
2019-02-24T21:28:00.730Z,26.07
2019-02-24T21:30:29.418Z,25.27
2019-02-24T21:32:58.177Z,29.97
2019-02-24T21:35:26.945Z,25.93
2019-02-24T21:37:55.625Z,24.23
2019-02-24T21:40:24.306Z,24.57
2019-02-24T21:42:52.974Z,30.80
2019-02-24T21:45:26.378Z,28.53
2019-02-24T21:47:55.042Z,29.07
2019-02-24T21:50:23.715Z,39.00
2019-02-24T21:52:52.496Z,32.10
2019-02-24T21:55:21.191Z,30.60
2019-02-24T21:57:49.857Z,35.70
2019-02-24T22:00:26.661Z,36.00
2019-02-24T22:02:55.328Z,37.27
2019-02-24T22:05:24.000Z,40.00
2019-02-24T22:07:52.684Z,51.93
2019-02-24T22:10:21.354Z,51.47
2019-02-24T22:12:50.027Z,49.93
2019-02-24T22:15:21.335Z,36.37
2019-02-24T22:17:50.017Z,45.80
2019-02-24T22:20:18.709Z,38.57
2019-02-24T22:22:47.414Z,35.47
2019-02-24T22:25:16.393Z,33.87
2019-02-24T22:27:45.165Z,33.77
2019-02-24T22:30:16.020Z,31.93
2019-02-24T22:32:44.805Z,32.47
2019-02-24T22:35:13.488Z,26.80
2019-02-24T22:37:42.171Z,30.87
2019-02-24T22:40:12.437Z,26.87
2019-02-24T22:42:42.018Z,38.87
2019-02-24T22:45:21.443Z,31.40
2019-02-24T22:47:50.243Z,29.03
2019-02-24T22:50:18.931Z,31.23
2019-02-24T22:52:47.613Z,34.07
2019-02-24T22:55:18.373Z,32.33
2019-02-24T22:57:47.145Z,32.67
2019-02-24T23:00:36.822Z,39.63
2019-02-24T23:03:05.905Z,42.53
2019-02-24T23:05:34.581Z,44.00
2019-02-24T23:08:03.259Z,36.73
2019-02-24T23:10:31.969Z,33.50
2019-02-24T23:13:00.640Z,43.47
2019-02-24T23:15:29.314Z,33.73
2019-02-24T23:17:57.988Z,29.83
2019-02-24T23:20:26.782Z,27.80
2019-02-24T23:22:55.460Z,29.60
2019-02-24T23:25:24.126Z,22.67
2019-02-24T23:27:52.796Z,24.70
2019-02-24T23:30:21.484Z,22.27
2019-02-24T23:32:50.151Z,19.70
2019-02-24T23:35:18.835Z,19.47
2019-02-24T23:37:47.520Z,20.23
2019-02-24T23:40:16.235Z,27.30
2019-02-24T23:42:44.934Z,28.50
2019-02-24T23:45:13.719Z,28.50
2019-02-24T23:47:42.396Z,27.70
2019-02-24T23:50:12.389Z,19.87
2019-02-24T23:52:41.061Z,21.23
2019-02-24T23:55:10.937Z,20.27
2019-02-24T23:57:39.628Z,22.17
